createdAt,value
2017-12-05T00:00:23.156Z,3.56
2017-12-05T00:01:32.852Z,3.66
2017-12-05T00:02:42.806Z,3.68
2017-12-05T00:03:52.748Z,3.68
2017-12-05T00:05:02.449Z,3.74
2017-12-05T00:06:12.404Z,3.7
2017-12-05T00:07:22.088Z,3.73
2017-12-05T00:08:31.779Z,3.71
2017-12-05T00:09:41.719Z,3.84
2017-12-05T00:10:51.420Z,3.85
2017-12-05T00:12:01.408Z,3.82
2017-12-05T00:13:11.106Z,3.82
2017-12-05T00:14:20.823Z,3.86
2017-12-05T00:15:30.510Z,3.73
2017-12-05T00:16:40.462Z,3.82
2017-12-05T00:17:50.205Z,3.91
2017-12-05T00:19:00.142Z,3.85
2017-12-05T00:20:09.589Z,3.82
2017-12-05T00:21:19.542Z,3.91
2017-12-05T00:22:29.239Z,3.86
2017-12-05T00:23:39.179Z,3.86
2017-12-05T00:24:48.601Z,3.88
2017-12-05T00:25:58.282Z,3.84
2017-12-05T00:27:08.225Z,3.96
2017-12-05T00:28:17.408Z,3.94
2017-12-05T00:29:27.103Z,3.89
2017-12-05T00:30:37.053Z,3.95
2017-12-05T00:31:46.746Z,3.96
2017-12-05T00:32:56.425Z,3.99
2017-12-05T00:34:06.379Z,3.99
2017-12-05T00:35:16.083Z,3.99
2017-12-05T00:36:26.078Z,3.96
2017-12-05T00:37:36.093Z,4.02
2017-12-05T00:38:45.785Z,3.92
2017-12-05T00:39:55.479Z,3.96
2017-12-05T00:41:05.169Z,4.06
2017-12-05T00:42:14.339Z,4.02
2017-12-05T00:43:23.779Z,4.03
2017-12-05T00:44:33.770Z,4
2017-12-05T00:45:43.445Z,4.02
2017-12-05T00:46:52.613Z,3.96
2017-12-05T00:48:02.294Z,4
2017-12-05T00:49:12.010Z,4
2017-12-05T00:50:21.710Z,3.99
2017-12-05T00:51:31.139Z,4.09
2017-12-05T00:52:41.083Z,4.07
2017-12-05T00:53:50.789Z,4.14
2017-12-05T00:55:00.729Z,4.13
2017-12-05T00:56:10.679Z,4.04
2017-12-05T00:57:20.363Z,3.99
2017-12-05T00:58:29.523Z,4.12
2017-12-05T00:59:39.535Z,4.1
2017-12-05T01:00:48.968Z,4.04
2017-12-05T01:01:58.652Z,4.2
2017-12-05T01:03:08.338Z,4.16
2017-12-05T01:04:17.764Z,4.16
2017-12-05T01:05:27.449Z,4.18
2017-12-05T01:06:37.132Z,4.21
2017-12-05T01:07:47.084Z,4.18
2017-12-05T01:08:57.054Z,4.24
2017-12-05T01:10:07.004Z,4.22
2017-12-05T01:11:16.954Z,4.24
2017-12-05T01:12:26.377Z,4.24
2017-12-05T01:13:36.065Z,4.16
2017-12-05T01:14:45.492Z,4.24
2017-12-05T01:15:55.734Z,4.2
2017-12-05T01:17:05.414Z,4.36
2017-12-05T01:18:15.349Z,4.3
2017-12-05T01:19:25.025Z,4.34
2017-12-05T01:20:34.707Z,4.3
2017-12-05T01:21:44.400Z,4.32
2017-12-05T01:22:54.380Z,4.36
2017-12-05T01:24:03.543Z,4.34
2017-12-05T01:25:13.495Z,4.3
2017-12-05T01:26:22.940Z,4.4
2017-12-05T01:27:32.618Z,4.4
2017-12-05T01:28:42.569Z,4.4
2017-12-05T01:29:52.253Z,4.39
2017-12-05T01:31:02.212Z,4.42
2017-12-05T01:32:12.151Z,4.52
2017-12-05T01:33:21.842Z,4.5
2017-12-05T01:34:31.533Z,4.53
2017-12-05T01:35:41.491Z,4.6
2017-12-05T01:36:51.174Z,4.53
2017-12-05T01:38:00.861Z,4.57
2017-12-05T01:39:10.814Z,4.57
2017-12-05T01:40:20.764Z,4.6
2017-12-05T01:41:30.475Z,4.57
2017-12-05T01:42:40.161Z,4.63
2017-12-05T01:43:50.102Z,4.66
2017-12-05T01:45:00.051Z,4.67
2017-12-05T01:46:09.488Z,4.64
2017-12-05T01:47:19.185Z,4.6
2017-12-05T01:48:28.881Z,4.64
2017-12-05T01:49:38.574Z,4.68
2017-12-05T01:50:48.528Z,4.7
2017-12-05T01:51:58.213Z,4.68
2017-12-05T01:53:07.908Z,4.7
2017-12-05T01:54:17.594Z,4.71
2017-12-05T01:55:27.538Z,4.7
2017-12-05T01:56:37.489Z,4.68
2017-12-05T01:57:47.177Z,4.68
2017-12-05T01:58:57.118Z,4.7
2017-12-05T02:00:07.048Z,4.67
2017-12-05T02:01:16.991Z,4.68
2017-12-05T02:02:26.710Z,4.7
2017-12-05T02:03:36.137Z,4.75
2017-12-05T02:04:46.077Z,4.67
2017-12-05T02:05:56.029Z,4.64
2017-12-05T02:07:05.963Z,4.64
2017-12-05T02:08:15.648Z,4.7
2017-12-05T02:09:25.587Z,4.71
2017-12-05T02:10:35.559Z,4.74
2017-12-05T02:11:45.495Z,4.7
2017-12-05T02:12:55.439Z,4.7
2017-12-05T02:14:05.134Z,4.67
2017-12-05T02:15:15.088Z,4.68
2017-12-05T02:16:24.774Z,4.68
2017-12-05T02:17:34.459Z,4.66
2017-12-05T02:18:44.396Z,4.67
2017-12-05T02:19:53.825Z,4.7
2017-12-05T02:21:03.503Z,4.71
2017-12-05T02:22:13.457Z,4.74
2017-12-05T02:23:23.114Z,4.74
2017-12-05T02:24:32.812Z,4.67
2017-12-05T02:25:43.058Z,4.75
2017-12-05T02:26:52.744Z,4.71
2017-12-05T02:28:02.427Z,4.74
2017-12-05T02:29:12.116Z,4.66
2017-12-05T02:30:21.544Z,4.78
2017-12-05T02:31:31.487Z,4.67
2017-12-05T02:32:41.439Z,4.75
2017-12-05T02:33:51.392Z,4.66
2017-12-05T02:35:01.093Z,4.74
2017-12-05T02:36:10.810Z,4.66
2017-12-05T02:37:20.508Z,4.67
2017-12-05T02:38:30.463Z,4.67
2017-12-05T02:39:40.166Z,4.66
2017-12-05T02:40:50.115Z,4.67
2017-12-05T02:42:00.309Z,4.67
2017-12-05T02:43:09.992Z,4.64
2017-12-05T02:44:19.689Z,4.66
2017-12-05T02:45:29.635Z,4.67
2017-12-05T02:46:39.356Z,4.68
2017-12-05T02:47:49.046Z,4.67
2017-12-05T02:48:58.988Z,4.75
2017-12-05T02:50:08.425Z,4.67
2017-12-05T02:51:18.141Z,4.64
2017-12-05T02:52:28.086Z,4.75
2017-12-05T02:53:37.773Z,4.67
2017-12-05T02:54:47.442Z,4.74
2017-12-05T02:55:56.624Z,4.71
2017-12-05T02:57:06.562Z,4.71
2017-12-05T02:58:16.524Z,4.68
2017-12-05T02:59:26.466Z,4.7
2017-12-05T03:00:36.404Z,4.7
2017-12-05T03:01:46.342Z,4.68
2017-12-05T03:02:55.771Z,4.67
2017-12-05T03:04:04.951Z,4.7
2017-12-05T03:05:14.895Z,4.67
2017-12-05T03:06:24.832Z,4.75
2017-12-05T03:07:34.507Z,4.76
2017-12-05T03:08:44.198Z,4.74
2017-12-05T03:09:53.876Z,4.68
2017-12-05T03:11:03.300Z,4.74
2017-12-05T03:12:13.245Z,4.68
2017-12-05T03:13:23.186Z,4.74
2017-12-05T03:14:32.893Z,4.76
2017-12-05T03:15:42.836Z,4.79
2017-12-05T03:16:52.572Z,4.78
2017-12-05T03:18:02.271Z,4.82
2017-12-05T03:19:11.959Z,4.71
2017-12-05T03:20:21.945Z,4.78
2017-12-05T03:21:31.881Z,4.87
2017-12-05T03:22:41.562Z,4.75
2017-12-05T03:23:50.986Z,4.78
2017-12-05T03:25:00.932Z,4.75
2017-12-05T03:26:10.614Z,4.78
2017-12-05T03:27:20.039Z,4.87
2017-12-05T03:28:29.471Z,4.92
2017-12-05T03:29:39.408Z,4.86
2017-12-05T03:30:49.107Z,4.86
2017-12-05T03:31:59.055Z,4.87
2017-12-05T03:33:08.993Z,4.86
2017-12-05T03:34:18.679Z,4.86
2017-12-05T03:35:28.395Z,4.87
2017-12-05T03:36:38.352Z,4.92
2017-12-05T03:37:48.044Z,4.89
2017-12-05T03:38:57.720Z,4.89
2017-12-05T03:40:07.427Z,5
2017-12-05T03:41:17.368Z,4.94
2017-12-05T03:42:27.049Z,5
2017-12-05T03:43:36.743Z,4.92
2017-12-05T03:44:46.437Z,5
2017-12-05T03:45:56.381Z,5
2017-12-05T03:47:06.090Z,4.97
2017-12-05T03:48:16.024Z,5.02
2017-12-05T03:49:25.457Z,4.92
2017-12-05T03:50:35.183Z,5.01
2017-12-05T03:51:44.611Z,5.08
2017-12-05T03:52:54.304Z,5
2017-12-05T03:54:03.996Z,5.01
2017-12-05T03:55:13.423Z,5.02
2017-12-05T03:56:23.123Z,5.05
2017-12-05T03:57:32.826Z,5.05
2017-12-05T03:58:42.531Z,4.98
2017-12-05T03:59:51.959Z,5.01
2017-12-05T04:01:01.649Z,5.02
2017-12-05T04:02:11.333Z,5.02
2017-12-05T04:03:21.279Z,5.02
2017-12-05T04:04:30.962Z,5
2017-12-05T04:05:40.918Z,5.02
2017-12-05T04:06:50.621Z,5.1
2017-12-05T04:08:00.304Z,5.08
2017-12-05T04:09:10.242Z,5.08
2017-12-05T04:10:19.670Z,5.05
2017-12-05T04:11:29.093Z,5.15
2017-12-05T04:12:38.517Z,5.18
2017-12-05T04:13:48.203Z,5.02
2017-12-05T04:14:58.147Z,5.02
2017-12-05T04:16:07.845Z,5.02
2017-12-05T04:17:17.795Z,5.1
2017-12-05T04:18:27.226Z,5.02
2017-12-05T04:19:37.166Z,5.1
2017-12-05T04:20:47.118Z,5.08
2017-12-05T04:21:56.817Z,5
2017-12-05T04:23:06.505Z,5.02
2017-12-05T04:24:16.444Z,5.15
2017-12-05T04:25:26.382Z,5.18
2017-12-05T04:26:35.807Z,5.18
2017-12-05T04:27:45.492Z,5.04
2017-12-05T04:28:55.176Z,5.12
2017-12-05T04:30:05.114Z,5.12
2017-12-05T04:31:14.546Z,5.18
2017-12-05T04:32:24.241Z,5.18
2017-12-05T04:33:34.185Z,5.07
2017-12-05T04:34:43.859Z,5.15
2017-12-05T04:35:53.542Z,5.19
2017-12-05T04:37:02.973Z,5.12
2017-12-05T04:38:12.657Z,5.16
2017-12-05T04:39:22.652Z,5.15
2017-12-05T04:40:32.600Z,5.12
2017-12-05T04:41:42.041Z,5.13
2017-12-05T04:42:51.984Z,5.13
2017-12-05T04:44:01.666Z,5.16
2017-12-05T04:45:11.357Z,5.16
2017-12-05T04:46:21.293Z,5.22
2017-12-05T04:47:30.979Z,5.22
2017-12-05T04:48:40.401Z,5.25
2017-12-05T04:49:50.084Z,5.25
2017-12-05T04:50:59.766Z,5.22
2017-12-05T04:52:09.716Z,5.23
2017-12-05T04:53:19.401Z,5.33
2017-12-05T04:54:29.360Z,5.31
2017-12-05T04:55:39.051Z,5.33
2017-12-05T04:56:48.753Z,5.29
2017-12-05T04:57:58.446Z,5.4
2017-12-05T04:59:07.863Z,5.38
2017-12-05T05:00:17.293Z,5.47
2017-12-05T05:01:26.976Z,5.49
2017-12-05T05:02:36.916Z,5.44
2017-12-05T05:03:46.619Z,5.49
2017-12-05T05:04:56.621Z,5.55
2017-12-05T05:06:06.053Z,5.59
2017-12-05T05:07:16.033Z,5.56
2017-12-05T05:08:25.980Z,5.69
2017-12-05T05:09:35.674Z,5.73
2017-12-05T05:10:45.607Z,5.67
2017-12-05T05:11:54.778Z,5.8
2017-12-05T05:13:04.461Z,5.8
2017-12-05T05:14:14.404Z,5.83
2017-12-05T05:15:23.575Z,5.8
2017-12-05T05:16:32.993Z,5.83
2017-12-05T05:17:42.424Z,5.97
2017-12-05T05:18:52.112Z,5.98
2017-12-05T05:20:02.017Z,5.99
2017-12-05T05:21:11.964Z,5.98
2017-12-05T05:22:21.662Z,6.07
2017-12-05T05:23:31.350Z,6.15
2017-12-05T05:24:41.308Z,6.22
2017-12-05T05:25:50.992Z,6.31
2017-12-05T05:27:00.948Z,6.32
2017-12-05T05:28:10.656Z,6.34
2017-12-05T05:29:20.350Z,6.29
2017-12-05T05:30:30.039Z,6.36
2017-12-05T05:31:39.999Z,6.35
2017-12-05T05:32:49.444Z,6.38
2017-12-05T05:33:58.880Z,6.41
2017-12-05T05:35:08.559Z,6.46
2017-12-05T05:36:18.260Z,6.53
2017-12-05T05:37:28.204Z,6.5
2017-12-05T05:38:37.883Z,6.59
2017-12-05T05:39:47.826Z,6.54
2017-12-05T05:40:57.533Z,6.57
2017-12-05T05:42:07.493Z,6.64
2017-12-05T05:43:16.938Z,6.72
2017-12-05T05:44:26.639Z,6.65
2017-12-05T05:45:36.068Z,6.72
2017-12-05T05:46:45.754Z,6.77
2017-12-05T05:47:55.455Z,6.85
2017-12-05T05:49:04.908Z,6.8
2017-12-05T05:50:14.590Z,6.89
2017-12-05T05:51:24.563Z,6.87
2017-12-05T05:52:34.524Z,6.92
2017-12-05T05:53:44.467Z,6.86
2017-12-05T05:54:54.178Z,6.96
2017-12-05T05:56:04.121Z,6.93
2017-12-05T05:57:14.220Z,6.92
2017-12-05T05:58:24.157Z,6.96
2017-12-05T05:59:33.588Z,7.05
2017-12-05T06:00:43.342Z,7.01
2017-12-05T06:01:53.029Z,7.07
2017-12-05T06:03:02.710Z,7.04
2017-12-05T06:04:12.658Z,7.07
2017-12-05T06:05:22.343Z,7.11
2017-12-05T06:06:32.029Z,7.11
2017-12-05T06:07:41.744Z,7.07
2017-12-05T06:08:51.694Z,7.01
2017-12-05T06:10:01.650Z,7.04
2017-12-05T06:11:11.610Z,7.01
2017-12-05T06:12:21.557Z,7.1
2017-12-05T06:13:30.983Z,7.1
2017-12-05T06:14:40.685Z,7.01
2017-12-05T06:15:50.631Z,7.04
2017-12-05T06:17:00.659Z,7.05
2017-12-05T06:18:10.341Z,7.07
2017-12-05T06:19:20.042Z,7.05
2017-12-05T06:20:29.993Z,7.1
2017-12-05T06:21:39.696Z,7.03
2017-12-05T06:22:49.126Z,7.05
2017-12-05T06:23:58.807Z,7.11
2017-12-05T06:25:08.500Z,7.07
2017-12-05T06:26:18.198Z,7.07
2017-12-05T06:27:27.371Z,7.13
2017-12-05T06:28:37.070Z,7.14
2017-12-05T06:29:46.757Z,7.14
2017-12-05T06:30:56.463Z,7.15
2017-12-05T06:32:06.407Z,7.1
2017-12-05T06:33:15.849Z,7.13
2017-12-05T06:34:25.551Z,7.1
2017-12-05T06:35:35.261Z,7.13
2017-12-05T06:36:44.699Z,7.18
2017-12-05T06:37:54.380Z,7.19
2017-12-05T06:39:04.091Z,7.23
2017-12-05T06:40:13.786Z,7.19
2017-12-05T06:41:22.956Z,7.23
2017-12-05T06:42:32.924Z,7.18
2017-12-05T06:43:42.621Z,7.26
2017-12-05T06:44:52.565Z,7.19
2017-12-05T06:46:02.510Z,7.23
2017-12-05T06:47:12.458Z,7.14
2017-12-05T06:48:22.407Z,7.31
2017-12-05T06:49:32.088Z,7.21
2017-12-05T06:50:41.777Z,7.31
2017-12-05T06:51:51.461Z,7.29
2017-12-05T06:53:01.422Z,7.23
2017-12-05T06:54:11.114Z,7.33
2017-12-05T06:55:21.069Z,7.21
2017-12-05T06:56:30.773Z,7.18
2017-12-05T06:57:40.460Z,7.21
2017-12-05T06:58:50.415Z,7.22
2017-12-05T07:00:00.369Z,7.21
2017-12-05T07:01:10.052Z,7.22
2017-12-05T07:02:19.741Z,7.15
2017-12-05T07:03:29.428Z,7.15
2017-12-05T07:04:38.847Z,7.15
2017-12-05T07:05:48.532Z,7.21
2017-12-05T07:06:58.480Z,7.15
2017-12-05T07:08:08.169Z,7.31
2017-12-05T07:09:17.863Z,7.23
2017-12-05T07:10:27.547Z,7.32
2017-12-05T07:11:37.238Z,7.33
2017-12-05T07:12:46.671Z,7.25
2017-12-05T07:13:56.097Z,7.37
2017-12-05T07:15:05.550Z,7.19
2017-12-05T07:16:15.490Z,7.36
2017-12-05T07:17:25.450Z,7.28
2017-12-05T07:18:35.394Z,7.28
2017-12-05T07:19:44.572Z,7.36
2017-12-05T07:20:54.527Z,7.28
2017-12-05T07:22:04.211Z,7.32
2017-12-05T07:23:13.908Z,7.33
2017-12-05T07:24:23.591Z,7.33
2017-12-05T07:25:33.604Z,7.33
2017-12-05T07:26:43.284Z,7.39
2017-12-05T07:27:52.707Z,7.33
2017-12-05T07:29:02.682Z,7.33
2017-12-05T07:30:12.378Z,7.37
2017-12-05T07:31:22.120Z,7.33
2017-12-05T07:32:31.849Z,7.39
2017-12-05T07:33:41.550Z,7.39
2017-12-05T07:34:51.516Z,7.39
2017-12-05T07:36:01.289Z,7.32
2017-12-05T07:37:11.257Z,7.37
2017-12-05T07:38:20.478Z,7.32
2017-12-05T07:39:30.434Z,7.36
2017-12-05T07:40:40.378Z,7.33
2017-12-05T07:41:50.327Z,7.32
2017-12-05T07:43:00.283Z,7.33
2017-12-05T07:44:09.993Z,7.36
2017-12-05T07:45:19.936Z,7.36
2017-12-05T07:46:29.646Z,7.39
2017-12-05T07:47:39.087Z,7.4
2017-12-05T07:48:48.794Z,7.37
2017-12-05T07:49:58.764Z,7.31
2017-12-05T07:51:08.519Z,7.41
2017-12-05T07:52:18.080Z,7.36
2017-12-05T07:53:27.560Z,7.39
2017-12-05T07:54:37.564Z,7.37
2017-12-05T07:55:47.517Z,7.36
2017-12-05T07:56:57.224Z,7.36
2017-12-05T07:58:07.002Z,7.36
2017-12-05T07:59:16.719Z,7.31
2017-12-05T08:00:26.159Z,7.37
2017-12-05T08:01:35.597Z,7.37
2017-12-05T08:02:45.586Z,7.33
2017-12-05T08:03:55.305Z,7.4
2017-12-05T08:05:04.752Z,7.33
2017-12-05T08:06:14.706Z,7.4
2017-12-05T08:07:24.143Z,7.36
2017-12-05T08:08:33.875Z,7.36
2017-12-05T08:09:43.326Z,7.26
2017-12-05T08:10:53.318Z,7.37
2017-12-05T08:12:03.280Z,7.31
2017-12-05T08:13:13.237Z,7.33
2017-12-05T08:14:22.938Z,7.36
2017-12-05T08:15:32.924Z,7.36
2017-12-05T08:16:42.375Z,7.36
2017-12-05T08:17:52.367Z,7.4
2017-12-05T08:19:02.326Z,7.36
2017-12-05T08:20:11.778Z,7.4
2017-12-05T08:21:21.472Z,7.39
2017-12-05T08:22:31.421Z,7.33
2017-12-05T08:23:41.388Z,7.4
2017-12-05T08:24:51.353Z,7.37
2017-12-05T08:26:01.060Z,7.36
2017-12-05T08:27:10.751Z,7.28
2017-12-05T08:28:20.475Z,7.32
2017-12-05T08:29:30.176Z,7.32
2017-12-05T08:30:39.924Z,7.26
2017-12-05T08:31:49.888Z,7.31
2017-12-05T08:32:59.848Z,7.29
2017-12-05T08:34:09.543Z,7.32
2017-12-05T08:35:19.552Z,7.31
2017-12-05T08:36:29.496Z,7.28
2017-12-05T08:37:39.236Z,7.33
2017-12-05T08:38:49.207Z,7.31
2017-12-05T08:39:59.172Z,7.29
2017-12-05T08:41:08.866Z,7.4
2017-12-05T08:42:18.550Z,7.28
2017-12-05T08:43:28.278Z,7.26
2017-12-05T08:44:37.725Z,7.32
2017-12-05T08:45:47.168Z,7.32
2017-12-05T08:46:57.125Z,7.33
2017-12-05T08:48:06.818Z,7.37
2017-12-05T08:49:16.252Z,7.28
2017-12-05T08:50:25.957Z,7.39
2017-12-05T08:51:35.664Z,7.29
2017-12-05T08:52:45.357Z,7.39
2017-12-05T08:53:55.345Z,7.37
2017-12-05T08:55:05.336Z,7.36
2017-12-05T08:56:15.318Z,7.37
2017-12-05T08:57:25.086Z,7.33
2017-12-05T08:58:34.564Z,7.32
2017-12-05T08:59:44.516Z,7.41
2017-12-05T09:00:54.510Z,7.39
2017-12-05T09:02:03.971Z,7.31
2017-12-05T09:03:13.976Z,7.33
2017-12-05T09:04:23.672Z,7.36
2017-12-05T09:05:33.385Z,7.37
2017-12-05T09:06:43.369Z,7.4
2017-12-05T09:07:53.068Z,7.36
2017-12-05T09:09:02.764Z,7.33
2017-12-05T09:10:12.770Z,7.32
2017-12-05T09:11:22.045Z,7.39
2017-12-05T09:12:32.117Z,7.37
2017-12-05T09:13:42.065Z,7.4
2017-12-05T09:14:51.245Z,7.36
2017-12-05T09:16:01.205Z,7.44
2017-12-05T09:17:11.165Z,7.5
2017-12-05T09:18:21.134Z,7.58
2017-12-05T09:19:31.141Z,7.43
2017-12-05T09:20:40.900Z,7.48
2017-12-05T09:21:50.966Z,7.44
2017-12-05T09:23:00.921Z,7.47
2017-12-05T09:24:10.393Z,7.51
2017-12-05T09:25:20.343Z,7.51
2017-12-05T09:26:29.780Z,7.59
2017-12-05T09:27:38.963Z,7.59
2017-12-05T09:28:48.652Z,7.59
2017-12-05T09:29:58.111Z,7.59
2017-12-05T09:31:07.822Z,7.56
2017-12-05T09:32:17.283Z,7.53
2017-12-05T09:33:26.999Z,7.56
2017-12-05T09:34:36.700Z,7.51
2017-12-05T09:35:46.127Z,7.53
2017-12-05T09:36:55.834Z,7.55
2017-12-05T09:38:05.024Z,7.58
2017-12-05T09:39:14.719Z,7.51
2017-12-05T09:40:24.162Z,7.56
2017-12-05T09:41:33.340Z,7.53
2017-12-05T09:42:43.285Z,7.58
2017-12-05T09:43:52.986Z,7.61
2017-12-05T09:45:02.933Z,7.55
2017-12-05T09:46:12.923Z,7.62
2017-12-05T09:47:22.353Z,7.66
2017-12-05T09:48:32.307Z,7.61
2017-12-05T09:49:41.757Z,7.64
2017-12-05T09:50:51.467Z,7.66
2017-12-05T09:52:01.259Z,7.59
2017-12-05T09:53:10.987Z,7.61
2017-12-05T09:54:20.699Z,7.61
2017-12-05T09:55:30.167Z,7.61
2017-12-05T09:56:39.872Z,7.58
2017-12-05T09:57:49.832Z,7.61
2017-12-05T09:58:59.518Z,7.61
2017-12-05T10:00:09.470Z,7.62
2017-12-05T10:01:19.431Z,7.61
2017-12-05T10:02:29.378Z,7.66
2017-12-05T10:03:38.809Z,7.58
2017-12-05T10:04:48.776Z,7.62
2017-12-05T10:05:58.210Z,7.53
2017-12-05T10:07:07.907Z,7.56
2017-12-05T10:08:17.343Z,7.56
2017-12-05T10:09:26.786Z,7.56
2017-12-05T10:10:36.503Z,7.53
2017-12-05T10:11:46.217Z,7.5
2017-12-05T10:12:55.148Z,7.53
2017-12-05T10:14:05.096Z,7.55
2017-12-05T10:15:14.535Z,7.61
2017-12-05T10:16:24.243Z,7.66
2017-12-05T10:17:33.716Z,7.59
2017-12-05T10:18:43.845Z,7.61
2017-12-05T10:19:53.795Z,7.66
2017-12-05T10:21:03.520Z,7.67
2017-12-05T10:22:12.970Z,7.66
2017-12-05T10:23:22.917Z,7.74
2017-12-05T10:24:32.355Z,7.59
2017-12-05T10:25:42.106Z,7.69
2017-12-05T10:26:51.817Z,7.8
2017-12-05T10:28:01.508Z,7.59
2017-12-05T10:29:10.948Z,7.66
2017-12-05T10:30:20.920Z,7.8
2017-12-05T10:31:30.616Z,7.66
2017-12-05T10:32:40.630Z,7.8
2017-12-05T10:33:50.593Z,7.69
2017-12-05T10:35:00.561Z,7.66
2017-12-05T10:36:10.508Z,7.69
2017-12-05T10:37:20.197Z,7.58
2017-12-05T10:38:29.905Z,7.61
2017-12-05T10:39:39.871Z,7.53
2017-12-05T10:40:49.306Z,7.53
2017-12-05T10:41:59.002Z,7.5
2017-12-05T10:43:08.704Z,7.44
2017-12-05T10:44:18.739Z,7.44
2017-12-05T10:45:28.508Z,7.41
2017-12-05T10:46:38.490Z,7.55
2017-12-05T10:47:48.433Z,7.37
2017-12-05T10:48:58.444Z,7.37
2017-12-05T10:50:08.421Z,7.37
2017-12-05T10:51:18.394Z,7.33
2017-12-05T10:52:28.418Z,7.39
2017-12-05T10:53:38.109Z,7.41
2017-12-05T10:54:48.107Z,7.41
2017-12-05T10:55:58.083Z,7.31
2017-12-05T10:57:07.821Z,7.41
2017-12-05T10:58:17.772Z,7.39
2017-12-05T10:59:27.490Z,7.37
2017-12-05T11:00:37.193Z,7.41
2017-12-05T11:01:47.159Z,7.39
2017-12-05T11:02:56.919Z,7.39
2017-12-05T11:04:06.945Z,7.39
2017-12-05T11:05:16.663Z,7.41
2017-12-05T11:06:26.626Z,7.33
2017-12-05T11:07:36.447Z,7.33
2017-12-05T11:08:46.438Z,7.41
2017-12-05T11:09:56.440Z,7.36
2017-12-05T11:11:06.411Z,7.36
2017-12-05T11:12:15.860Z,7.31
2017-12-05T11:13:25.844Z,7.28
2017-12-05T11:14:35.788Z,7.33
2017-12-05T11:15:45.759Z,7.36
2017-12-05T11:16:55.752Z,7.36
2017-12-05T11:18:05.497Z,7.37
2017-12-05T11:19:14.939Z,7.36
2017-12-05T11:20:24.911Z,7.32
2017-12-05T11:21:34.622Z,7.31
2017-12-05T11:22:44.327Z,7.33
2017-12-05T11:23:54.026Z,7.29
2017-12-05T11:25:03.746Z,7.29
2017-12-05T11:26:13.705Z,7.33
2017-12-05T11:27:23.683Z,7.31
2017-12-05T11:28:33.168Z,7.33
2017-12-05T11:29:43.154Z,7.36
2017-12-05T11:30:53.360Z,7.33
2017-12-05T11:32:03.002Z,7.37
2017-12-05T11:33:12.716Z,7.36
2017-12-05T11:34:22.142Z,7.36
2017-12-05T11:35:31.868Z,7.28
2017-12-05T11:36:41.594Z,7.4
2017-12-05T11:37:51.047Z,7.36
2017-12-05T11:39:00.746Z,7.39
2017-12-05T11:40:10.448Z,7.37
2017-12-05T11:41:20.419Z,7.4
2017-12-05T11:42:30.388Z,7.39
2017-12-05T11:43:40.358Z,7.43
2017-12-05T11:44:50.308Z,7.43
2017-12-05T11:46:00.318Z,7.41
2017-12-05T11:47:10.276Z,7.43
2017-12-05T11:48:20.245Z,7.36
2017-12-05T11:49:29.691Z,7.39
2017-12-05T11:50:39.155Z,7.41
2017-12-05T11:51:49.126Z,7.41
2017-12-05T11:52:58.578Z,7.39
2017-12-05T11:54:08.535Z,7.47
2017-12-05T11:55:18.513Z,7.41
2017-12-05T11:56:28.519Z,7.55
2017-12-05T11:57:38.224Z,7.44
2017-12-05T11:58:48.183Z,7.43
2017-12-05T11:59:58.153Z,7.41
2017-12-05T12:01:07.850Z,7.4
2017-12-05T12:02:17.538Z,7.44
2017-12-05T12:03:26.980Z,7.47
2017-12-05T12:04:36.940Z,7.44
2017-12-05T12:05:46.690Z,7.48
2017-12-05T12:06:56.121Z,7.41
2017-12-05T12:08:05.820Z,7.51
2017-12-05T12:09:15.540Z,7.44
2017-12-05T12:10:25.239Z,7.44
2017-12-05T12:11:35.206Z,7.55
2017-12-05T12:12:44.906Z,7.41
2017-12-05T12:13:54.858Z,7.51
2017-12-05T12:15:04.554Z,7.48
2017-12-05T12:16:14.507Z,7.55
2017-12-05T12:17:24.232Z,7.48
2017-12-05T12:18:33.951Z,7.5
2017-12-05T12:19:43.890Z,7.55
2017-12-05T12:20:53.357Z,7.55
2017-12-05T12:22:03.141Z,7.58
2017-12-05T12:23:12.847Z,7.53
2017-12-05T12:24:22.806Z,7.53
2017-12-05T12:25:32.528Z,7.56
2017-12-05T12:26:42.475Z,7.62
2017-12-05T12:27:52.439Z,7.58
2017-12-05T12:29:01.877Z,7.62
2017-12-05T12:30:11.330Z,7.62
2017-12-05T12:31:21.286Z,7.56
2017-12-05T12:32:30.725Z,7.55
2017-12-05T12:33:40.427Z,7.51
2017-12-05T12:34:50.122Z,7.55
2017-12-05T12:35:59.831Z,7.43
2017-12-05T12:37:09.540Z,7.46
2017-12-05T12:38:18.997Z,7.47
2017-12-05T12:39:28.953Z,7.5
2017-12-05T12:40:38.647Z,7.41
2017-12-05T12:41:48.349Z,7.32
2017-12-05T12:42:58.320Z,7.31
2017-12-05T12:44:08.286Z,7.37
2017-12-05T12:45:17.986Z,7.36
2017-12-05T12:46:27.964Z,7.4
2017-12-05T12:47:37.936Z,7.36
2017-12-05T12:48:47.379Z,7.29
2017-12-05T12:49:57.339Z,7.33
2017-12-05T12:51:07.037Z,7.32
2017-12-05T12:52:16.739Z,7.33
2017-12-05T12:53:26.436Z,7.28
2017-12-05T12:54:36.130Z,7.23
2017-12-05T12:55:45.837Z,7.25
2017-12-05T12:56:55.530Z,7.28
2017-12-05T12:58:04.965Z,7.19
2017-12-05T12:59:14.665Z,7.15
2017-12-05T13:00:24.620Z,7.13
2017-12-05T13:01:34.592Z,7.1
2017-12-05T13:02:44.299Z,7.14
2017-12-05T13:03:54.262Z,7.13
2017-12-05T13:05:04.229Z,7.03
2017-12-05T13:06:14.201Z,7.07
2017-12-05T13:07:24.221Z,7.03
2017-12-05T13:08:33.692Z,7.11
2017-12-05T13:09:43.654Z,7.1
2017-12-05T13:10:53.095Z,7.18
2017-12-05T13:12:02.787Z,7.1
2017-12-05T13:13:12.243Z,7.14
2017-12-05T13:14:21.944Z,7.15
2017-12-05T13:15:31.905Z,7.11
2017-12-05T13:16:41.867Z,7.15
2017-12-05T13:17:51.810Z,7.18
2017-12-05T13:19:01.859Z,7.14
2017-12-05T13:20:11.835Z,7.03
2017-12-05T13:21:21.274Z,7.13
2017-12-05T13:22:30.714Z,7.04
2017-12-05T13:23:40.688Z,7
2017-12-05T13:24:50.657Z,7.07
2017-12-05T13:26:00.407Z,7.01
2017-12-05T13:27:10.129Z,7.01
2017-12-05T13:28:19.884Z,7.1
2017-12-05T13:29:29.872Z,7.05
2017-12-05T13:30:39.300Z,7.04
2017-12-05T13:31:48.480Z,7
2017-12-05T13:32:58.187Z,7
2017-12-05T13:34:07.886Z,7.04
2017-12-05T13:35:17.850Z,7.03
2017-12-05T13:36:27.559Z,7.13
2017-12-05T13:37:37.316Z,7.08
2017-12-05T13:38:47.300Z,7.05
2017-12-05T13:39:57.001Z,7.18
2017-12-05T13:41:06.466Z,7.14
2017-12-05T13:42:16.174Z,7.11
2017-12-05T13:43:26.114Z,7.21
2017-12-05T13:44:35.823Z,7.21
2017-12-05T13:45:45.779Z,7.23
2017-12-05T13:46:55.472Z,7.15
2017-12-05T13:48:05.439Z,7.28
2017-12-05T13:49:15.402Z,7.22
2017-12-05T13:50:25.121Z,7.19
2017-12-05T13:51:34.829Z,7.07
2017-12-05T13:52:44.868Z,7.11
2017-12-05T13:53:54.628Z,7.14
2017-12-05T13:55:03.816Z,7.01
2017-12-05T13:56:13.780Z,7.03
2017-12-05T13:57:23.227Z,7.07
2017-12-05T13:58:32.922Z,7.07
2017-12-05T13:59:42.634Z,7.04
2017-12-05T14:00:52.674Z,7.1
2017-12-05T14:02:02.655Z,7.05
2017-12-05T14:03:12.423Z,7.03
2017-12-05T14:04:21.882Z,7.04
2017-12-05T14:05:31.854Z,6.96
2017-12-05T14:06:41.540Z,6.92
2017-12-05T14:07:51.519Z,6.97
2017-12-05T14:09:01.229Z,6.96
2017-12-05T14:10:10.927Z,6.95
2017-12-05T14:11:20.933Z,6.96
2017-12-05T14:12:30.383Z,6.96
2017-12-05T14:13:40.076Z,7.01
2017-12-05T14:14:49.816Z,6.92
2017-12-05T14:15:59.777Z,7.01
2017-12-05T14:17:09.236Z,6.93
2017-12-05T14:18:19.208Z,6.96
2017-12-05T14:19:29.166Z,6.96
2017-12-05T14:20:38.918Z,6.97
2017-12-05T14:21:48.885Z,7.04
2017-12-05T14:22:58.885Z,7.1
2017-12-05T14:24:08.594Z,7.1
2017-12-05T14:25:18.567Z,7.11
2017-12-05T14:26:28.003Z,7.19
2017-12-05T14:27:37.436Z,7.18
2017-12-05T14:28:47.430Z,7.19
2017-12-05T14:29:57.398Z,7.19
2017-12-05T14:31:06.854Z,7.1
2017-12-05T14:32:16.574Z,7.18
2017-12-05T14:33:26.286Z,7.25
2017-12-05T14:34:35.722Z,7.22
2017-12-05T14:35:45.194Z,7.22
2017-12-05T14:36:55.182Z,7.21
2017-12-05T14:38:05.140Z,7.21
2017-12-05T14:39:15.167Z,7.31
2017-12-05T14:40:25.121Z,7.18
2017-12-05T14:41:34.822Z,7.21
2017-12-05T14:42:44.560Z,7.13
2017-12-05T14:43:54.529Z,7.15
2017-12-05T14:45:04.231Z,7.05
2017-12-05T14:46:13.659Z,7.04
2017-12-05T14:47:23.364Z,7.04
2017-12-05T14:48:33.055Z,7
2017-12-05T14:49:43.001Z,7.05
2017-12-05T14:50:52.703Z,7.08
2017-12-05T14:52:02.394Z,7.05
2017-12-05T14:53:12.338Z,7.04
2017-12-05T14:54:22.357Z,7
2017-12-05T14:55:32.057Z,7.05
2017-12-05T14:56:42.010Z,6.96
2017-12-05T14:57:51.716Z,7
2017-12-05T14:59:01.684Z,6.95
2017-12-05T15:00:11.383Z,6.95
2017-12-05T15:01:21.333Z,6.97
2017-12-05T15:02:31.277Z,6.87
2017-12-05T15:03:41.242Z,6.96
2017-12-05T15:04:51.206Z,6.87
2017-12-05T15:06:00.911Z,6.96
2017-12-05T15:07:10.609Z,6.9
2017-12-05T15:08:19.786Z,6.89
2017-12-05T15:09:29.777Z,6.9
2017-12-05T15:10:39.768Z,6.92
2017-12-05T15:11:49.486Z,6.9
2017-12-05T15:12:59.462Z,6.89
2017-12-05T15:14:09.152Z,6.9
2017-12-05T15:15:18.858Z,6.92
2017-12-05T15:16:28.809Z,6.96
2017-12-05T15:17:38.519Z,6.89
2017-12-05T15:18:48.525Z,6.9
2017-12-05T15:19:58.468Z,6.96
2017-12-05T15:21:08.443Z,6.89
2017-12-05T15:22:17.904Z,6.97
2017-12-05T15:23:27.393Z,6.92
2017-12-05T15:24:37.357Z,6.96
2017-12-05T15:25:47.046Z,7
2017-12-05T15:26:57.013Z,6.95
2017-12-05T15:28:06.698Z,6.96
2017-12-05T15:29:16.385Z,6.93
2017-12-05T15:30:26.354Z,6.97
2017-12-05T15:31:36.316Z,6.97
2017-12-05T15:32:45.759Z,6.95